Airfield :
LOGIN :

Register | Disclaimer

   EN    FR    IT 

 










Legend :    VFR   Marginal VFR   IFR   Intensive IFR   Very Intensive IFR
Visi :
Ceiling :
>= 8 km
>= 3000ft
5 to 8 km
1000 to 3000 ft
1500m to 5 km
500 to 1000 ft
800 to 1500m
200 to 500 ft
< 800m
< 200 ft
Symbols :   Thunderstorms  Fog  Heavy snow  Heavy precipitations  Wind > 20 kt
SIGMETs :     Misc.  Thunderstorms  Icing  Turbulence  Mountain Waves  Volcanic Ashes






- Airport Elevation : 327 ft
- IATA code : BHX


EGBB - Birmingham

CURRENT METAR :
  • 120550Z 16006KT 9999 -RA NSC 01/01 Q0995

EXPIRED METARs :
  • 120520Z 16006KT CAVOK 01/00 Q0996
  • 120450Z 17006KT CAVOK 01/01 Q0997
  • 120420Z 17007KT CAVOK 02/01 Q0997
  • 120350Z 17005KT CAVOK 01/00 Q0998
  • 120320Z 17005KT CAVOK 01/00 Q0998

TAF TAF EGBB
Valid from the 12 at 06:00 until the 13 at 06:00 UTC


120458Z 1206/1306 23005KT 9999 FEW020
BECMG 1207/1210 16010KT
TEMPO 1207/1217 6000 RADZ BKN008
BECMG 1212/1215 24008KT
PROB30
TEMPO 1212/1215 2000 +RADZ BKN004
PROB40
TEMPO 1220/1224 3000 +SHRAGS BKN014
PROB30
TEMPO 1300/1306 6000 SHRA BKN014
ATIS : +44 121 780 0910



MET'MAP, your aeronautical weather chart ! - Copyright ORBIFLY December 2007 - Disclaimer

ORBIFLY MET'MAP TEAM :

Programming & Development : Alexandra Zaïnal
Concept & original design : Baudouin d'Aumeries
Assistance for programming : Marc-Olivier Méhu
Technical & hardware support : Manuel Goepfert

Contact : metmap@orbifly.com




SOURCES & CREDITS :

   NOAA